Time;durP1;ratioP1;P1;durP2;ratioP2;P2;SDS_P1;SDS_P2;PMS_P1;PMS_P2;Temp;Humidity;BMP_temperature;BMP_pressure;BME280_temperature;BME280_humidity;BME280_pressure;Samples;Min_cycle;Max_cycle;Signal;HPM_P1;HPM_P2
2023/03/07 00:00:12;;;;;;;37.03;17.42;;;3.20;99.90;;;;;;5072428;28;20032;-73
2023/03/07 00:02:38;;;;;;;40.05;17.33;;;3.20;99.90;;;;;;5063643;28;20387;-74
2023/03/07 00:05:04;;;;;;;38.88;17.20;;;3.20;99.90;;;;;;5067956;28;20044;-73
2023/03/07 00:07:30;;;;;;;33.55;15.93;;;3.20;99.90;;;;;;5070211;28;20044;-74
2023/03/07 00:09:56;;;;;;;35.00;16.02;;;3.20;99.90;;;;;;5072824;28;20101;-74
2023/03/07 00:12:23;;;;;;;33.85;15.10;;;3.20;99.90;;;;;;5071487;28;20032;-73
2023/03/07 00:14:49;;;;;;;32.28;14.50;;;3.20;99.90;;;;;;5068423;28;20056;-74
2023/03/07 00:17:14;;;;;;;28.55;12.85;;;3.20;99.90;;;;;;5071942;28;20036;-73
2023/03/07 00:19:43;;;;;;;22.00;11.63;;;3.20;99.90;;;;;;5071670;28;20425;-74
2023/03/07 00:22:10;;;;;;;24.15;11.93;;;3.20;99.90;;;;;;5068965;28;20052;-73
2023/03/07 00:24:36;;;;;;;25.20;11.68;;;3.20;99.90;;;;;;5070750;28;20442;-73
2023/03/07 00:27:02;;;;;;;25.48;10.18;;;3.10;99.90;;;;;;5071047;28;20119;-72
2023/03/07 00:29:28;;;;;;;24.38;10.32;;;3.00;99.90;;;;;;5068884;28;20117;-73
2023/03/07 00:31:53;;;;;;;19.05;9.13;;;3.00;99.90;;;;;;5071114;28;20029;-73
2023/03/07 00:34:19;;;;;;;20.55;8.63;;;3.00;99.90;;;;;;5067913;28;20602;-74
2023/03/07 00:36:45;;;;;;;13.75;5.82;;;3.00;99.90;;;;;;5062052;28;20044;-73
2023/03/07 00:39:11;;;;;;;25.08;6.30;;;3.00;99.90;;;;;;5071371;28;20401;-74
2023/03/07 00:41:36;;;;;;;19.77;5.25;;;2.90;99.90;;;;;;5071570;28;20066;-73
2023/03/07 00:44:02;;;;;;;25.27;6.15;;;2.90;99.90;;;;;;5064984;28;20537;-73
2023/03/07 00:46:28;;;;;;;20.75;5.88;;;2.90;99.90;;;;;;5067333;28;20571;-71
2023/03/07 00:48:54;;;;;;;15.30;5.28;;;3.00;99.90;;;;;;5071013;28;20056;-72
2023/03/07 00:51:21;;;;;;;22.10;5.22;;;2.90;99.90;;;;;;5069965;28;20055;-72
2023/03/07 00:53:47;;;;;;;18.15;5.30;;;3.00;99.90;;;;;;5064949;28;20041;-72
2023/03/07 00:56:20;;;;;;;22.92;5.05;;;3.00;99.90;;;;;;5068574;28;20413;-73
2023/03/07 00:58:46;;;;;;;13.82;4.78;;;3.00;99.90;;;;;;5070038;28;20393;-72
2023/03/07 01:01:14;;;;;;;14.73;4.50;;;3.20;99.90;;;;;;5065436;28;20056;-72
2023/03/07 01:03:40;;;;;;;18.85;4.43;;;3.10;99.90;;;;;;5068328;28;20056;-72
2023/03/07 01:06:13;;;;;;;16.85;4.20;;;3.10;99.90;;;;;;5068942;28;20054;-72
2023/03/07 01:08:39;;;;;;;20.70;4.82;;;3.10;99.90;;;;;;5072261;28;20041;-72
2023/03/07 01:11:06;;;;;;;13.10;4.00;;;3.30;99.90;;;;;;5059331;28;21458;-73
2023/03/07 01:13:33;;;;;;;14.20;3.70;;;3.20;99.90;;;;;;5070227;28;20037;-73
2023/03/07 01:16:11;;;;;;;9.15;3.20;;;3.30;99.90;;;;;;5051050;28;20044;-72
2023/03/07 01:18:37;;;;;;;21.00;4.05;;;3.20;99.90;;;;;;5064096;28;20044;-72
2023/03/07 01:21:14;;;;;;;16.08;4.18;;;3.20;99.90;;;;;;5068589;28;20082;-72
2023/03/07 01:23:39;;;;;;;18.95;3.33;;;3.20;99.90;;;;;;5054687;28;20509;-72
2023/03/07 01:26:05;;;;;;;20.75;3.17;;;3.30;99.90;;;;;;5063639;28;20055;-72
2023/03/07 01:28:30;;;;;;;18.88;3.08;;;3.30;99.90;;;;;;5069121;28;20041;-72
2023/03/07 01:30:59;;;;;;;16.00;3.50;;;3.30;99.90;;;;;;5064159;28;20060;-72
2023/03/07 01:33:25;;;;;;;17.92;2.92;;;3.30;99.90;;;;;;5072077;28;20079;-72
2023/03/07 01:35:51;;;;;;;20.02;2.78;;;3.30;99.90;;;;;;5071645;28;20068;-72
2023/03/07 01:38:16;;;;;;;22.85;2.40;;;3.30;99.90;;;;;;5072848;28;20086;-72
2023/03/07 01:40:42;;;;;;;22.95;3.20;;;3.30;99.90;;;;;;5070366;28;20033;-72
2023/03/07 01:43:32;;;;;;;19.50;2.60;;;3.20;99.90;;;;;;5067453;28;20154;-72
2023/03/07 01:46:25;;;;;;;12.82;2.75;;;3.20;99.90;;;;;;5064441;28;20045;-72
2023/03/07 01:48:56;;;;;;;14.77;2.30;;;3.20;99.90;;;;;;5069163;28;20399;-72
2023/03/07 01:51:23;;;;;;;12.63;2.08;;;3.10;99.90;;;;;;5069180;28;20048;-72
2023/03/07 01:53:51;;;;;;;18.92;2.25;;;3.10;99.90;;;;;;5071083;28;20067;-72
2023/03/07 01:56:17;;;;;;;10.68;1.92;;;3.10;99.90;;;;;;5058537;28;20040;-73
2023/03/07 01:58:44;;;;;;;16.17;2.33;;;3.10;99.90;;;;;;5070298;28;20082;-72
2023/03/07 02:01:12;;;;;;;11.10;1.95;;;3.10;99.90;;;;;;5066733;28;20037;-72
2023/03/07 02:03:47;;;;;;;19.48;2.55;;;3.10;99.90;;;;;;5069134;28;20052;-72
2023/03/07 02:06:13;;;;;;;25.25;3.10;;;2.90;99.90;;;;;;5058482;28;20051;-72
2023/03/07 02:08:40;;;;;;;14.65;2.90;;;2.90;99.90;;;;;;5069293;28;20041;-72
2023/03/07 02:11:07;;;;;;;14.10;2.30;;;2.80;99.90;;;;;;5062060;28;20041;-72
2023/03/07 02:13:34;;;;;;;19.30;2.75;;;2.80;99.90;;;;;;5057440;28;20452;-72
2023/03/07 02:16:02;;;;;;;12.80;2.35;;;2.70;99.90;;;;;;5067944;28;20045;-72
2023/03/07 02:18:31;;;;;;;17.75;2.20;;;2.70;99.90;;;;;;5069736;28;20127;-71
2023/03/07 02:21:02;;;;;;;11.82;2.58;;;2.70;99.90;;;;;;5068369;28;20052;-71
2023/03/07 02:23:45;;;;;;;10.98;2.10;;;2.60;99.90;;;;;;5069424;28;20184;-72
2023/03/07 02:26:25;;;;;;;13.18;2.28;;;2.60;99.90;;;;;;5066493;28;20048;-71
2023/03/07 02:28:51;;;;;;;19.52;2.10;;;2.60;99.90;;;;;;5074858;28;20048;-71
2023/03/07 02:31:17;;;;;;;13.85;2.83;;;2.60;99.90;;;;;;5068068;28;20132;-71
2023/03/07 02:33:43;;;;;;;12.85;2.55;;;2.70;99.90;;;;;;5074399;28;20507;-71
2023/03/07 02:36:13;;;;;;;12.82;2.28;;;2.70;99.90;;;;;;5069332;28;20505;-71
2023/03/07 02:38:42;;;;;;;21.25;2.20;;;2.70;99.90;;;;;;5070440;28;20164;-71
2023/03/07 02:41:09;;;;;;;17.27;2.33;;;2.70;99.90;;;;;;5070997;28;20048;-71
2023/03/07 02:43:35;;;;;;;15.73;2.30;;;2.60;99.90;;;;;;5069270;28;20492;-71
2023/03/07 02:46:01;;;;;;;16.77;2.88;;;2.60;99.90;;;;;;5073100;28;20120;-71
2023/03/07 02:48:26;;;;;;;18.00;2.20;;;2.50;99.90;;;;;;5075208;28;20047;-71
2023/03/07 02:50:52;;;;;;;24.63;2.97;;;2.50;99.90;;;;;;5074465;28;20041;-71
2023/03/07 02:53:18;;;;;;;14.50;1.83;;;2.40;99.90;;;;;;5072321;28;20036;-71
2023/03/07 02:55:43;;;;;;;13.70;1.80;;;2.40;99.90;;;;;;5077155;28;20129;-71
2023/03/07 02:58:09;;;;;;;17.73;2.15;;;2.50;99.90;;;;;;5076124;28;20123;-71
2023/03/07 03:00:35;;;;;;;13.35;2.55;;;2.50;99.90;;;;;;5071978;28;20084;-71
2023/03/07 03:03:01;;;;;;;16.25;2.15;;;2.40;99.90;;;;;;5072680;28;20040;-70
2023/03/07 03:05:27;;;;;;;10.70;2.25;;;2.40;99.90;;;;;;5072118;28;20161;-71
2023/03/07 03:07:52;;;;;;;11.48;2.33;;;2.40;99.90;;;;;;5073321;28;20082;-71
2023/03/07 03:10:18;;;;;;;5.35;1.98;;;2.30;99.90;;;;;;5074438;28;20037;-71
2023/03/07 03:12:44;;;;;;;19.60;2.70;;;2.40;99.90;;;;;;5076094;28;20100;-71
2023/03/07 03:15:10;;;;;;;21.75;2.65;;;2.30;99.90;;;;;;5069599;28;20032;-71
2023/03/07 03:17:36;;;;;;;18.98;2.05;;;2.30;99.90;;;;;;5067808;28;20157;-72
2023/03/07 03:20:12;;;;;;;12.32;2.08;;;2.30;99.90;;;;;;5075173;28;20051;-71
2023/03/07 03:22:41;;;;;;;11.00;2.38;;;2.40;99.90;;;;;;5068960;28;20041;-71
2023/03/07 03:25:09;;;;;;;13.75;2.05;;;2.40;99.90;;;;;;5070381;28;20041;-71
2023/03/07 03:27:36;;;;;;;14.15;1.90;;;2.40;99.90;;;;;;5069109;28;20044;-71
2023/03/07 03:30:03;;;;;;;16.45;1.80;;;2.50;99.90;;;;;;5072885;28;20044;-71
2023/03/07 03:32:29;;;;;;;12.05;3.20;;;2.40;99.90;;;;;;5070133;28;20558;-71
2023/03/07 03:34:54;;;;;;;26.95;2.63;;;2.40;99.90;;;;;;5072109;28;20119;-73
2023/03/07 03:37:20;;;;;;;14.93;2.47;;;3.00;99.90;;;;;;5068231;28;20043;-71
2023/03/07 03:39:45;;;;;;;8.32;1.63;;;2.30;99.90;;;;;;5066013;28;20656;-72
2023/03/07 03:42:11;;;;;;;10.90;2.00;;;2.30;99.90;;;;;;5063552;28;20476;-72
2023/03/07 03:44:37;;;;;;;21.83;2.63;;;2.30;99.90;;;;;;5072289;28;20036;-72
2023/03/07 03:47:03;;;;;;;14.90;2.35;;;2.20;99.90;;;;;;5070263;28;20054;-72
2023/03/07 03:49:28;;;;;;;15.52;1.98;;;2.20;99.90;;;;;;5070620;28;20468;-72
2023/03/07 03:51:54;;;;;;;5.35;1.52;;;2.20;99.90;;;;;;5064041;28;20114;-72
2023/03/07 03:54:20;;;;;;;14.07;2.00;;;2.20;99.90;;;;;;5071260;28;20931;-72
2023/03/07 03:56:45;;;;;;;12.82;2.10;;;2.20;99.90;;;;;;5069684;28;20059;-72
2023/03/07 03:59:11;;;;;;;13.82;2.03;;;2.10;99.90;;;;;;5070918;28;20033;-73
2023/03/07 04:01:36;;;;;;;10.77;2.05;;;2.10;99.90;;;;;;5064425;28;20040;-72
2023/03/07 04:04:03;;;;;;;10.60;2.45;;;2.20;99.90;;;;;;5071387;28;20109;-72
2023/03/07 04:06:32;;;;;;;12.63;2.60;;;2.10;99.90;;;;;;5069413;28;20048;-72
2023/03/07 04:08:58;;;;;;;10.15;2.42;;;2.10;99.90;;;;;;5072924;28;20056;-73
2023/03/07 04:11:25;;;;;;;10.13;2.13;;;2.20;99.90;;;;;;5070992;28;20040;-72
2023/03/07 04:13:51;;;;;;;8.68;1.90;;;2.20;99.90;;;;;;5071284;28;20055;-73
2023/03/07 04:16:17;;;;;;;9.75;2.35;;;2.20;99.90;;;;;;5068116;28;20043;-72
2023/03/07 04:18:43;;;;;;;10.45;1.83;;;2.20;99.90;;;;;;5071932;28;20063;-72
2023/03/07 04:21:12;;;;;;;12.45;2.10;;;2.20;99.90;;;;;;5066263;28;20400;-72
2023/03/07 04:23:38;;;;;;;9.15;1.90;;;2.30;99.90;;;;;;5068581;28;20482;-72
2023/03/07 04:26:05;;;;;;;10.20;1.83;;;2.30;99.90;;;;;;5069901;28;20042;-72
2023/03/07 04:28:43;;;;;;;10.27;1.73;;;2.30;99.90;;;;;;5067991;28;20127;-72
2023/03/07 04:31:31;;;;;;;10.35;1.70;;;2.30;99.90;;;;;;5061680;28;20434;-72
2023/03/07 04:33:57;;;;;;;11.95;2.05;;;2.30;99.90;;;;;;5072948;28;20389;-72
2023/03/07 04:36:24;;;;;;;10.75;1.60;;;2.20;99.90;;;;;;5060060;28;20037;-72
2023/03/07 04:38:49;;;;;;;13.50;2.47;;;2.20;99.90;;;;;;5069591;28;20404;-72
2023/03/07 04:41:25;;;;;;;15.73;2.40;;;2.20;99.90;;;;;;5063917;28;20041;-72
2023/03/07 04:43:51;;;;;;;17.48;2.60;;;2.20;99.90;;;;;;5071462;28;20107;-71
2023/03/07 04:46:17;;;;;;;12.23;1.70;;;2.20;99.90;;;;;;5066660;28;20123;-72
2023/03/07 04:48:44;;;;;;;17.05;2.10;;;2.20;99.90;;;;;;5071739;28;20060;-72
2023/03/07 04:51:09;;;;;;;10.80;2.42;;;2.20;99.90;;;;;;5066959;28;20040;-72
2023/03/07 04:53:35;;;;;;;9.65;1.90;;;2.20;99.90;;;;;;5053221;28;20051;-72
2023/03/07 04:56:04;;;;;;;9.73;1.95;;;2.20;99.90;;;;;;5059784;28;20453;-73
2023/03/07 04:58:30;;;;;;;16.55;2.47;;;2.20;99.90;;;;;;5051917;28;20049;-72
2023/03/07 05:00:56;;;;;;;13.80;1.90;;;2.30;99.90;;;;;;5057370;28;20048;-72
2023/03/07 05:03:23;;;;;;;15.50;2.63;;;2.30;99.90;;;;;;5063001;28;20041;-73
2023/03/07 05:05:49;;;;;;;13.35;1.95;;;2.40;99.90;;;;;;5069002;28;20555;-72
2023/03/07 05:08:15;;;;;;;13.35;2.30;;;2.40;99.90;;;;;;5070803;28;20041;-73
2023/03/07 05:10:40;;;;;;;11.77;2.50;;;2.40;99.90;;;;;;5065057;28;20067;-73
2023/03/07 05:13:07;;;;;;;13.55;2.17;;;2.50;99.90;;;;;;5065707;28;20044;-72
2023/03/07 05:15:33;;;;;;;9.65;2.60;;;2.60;99.90;;;;;;5055807;28;20033;-72
2023/03/07 05:17:59;;;;;;;12.90;1.90;;;2.60;99.90;;;;;;5071583;28;20055;-72
2023/03/07 05:20:25;;;;;;;14.88;1.90;;;2.60;99.90;;;;;;5060018;28;20037;-72
2023/03/07 05:22:51;;;;;;;14.90;2.15;;;2.60;99.90;;;;;;5062887;28;20402;-73
2023/03/07 05:25:17;;;;;;;17.63;2.53;;;2.50;99.90;;;;;;5076487;28;20047;-72
2023/03/07 05:27:43;;;;;;;11.60;2.22;;;2.50;99.90;;;;;;5075936;28;20047;-72
2023/03/07 05:30:11;;;;;;;13.60;1.80;;;2.50;99.90;;;;;;5074536;28;20124;-72
2023/03/07 05:32:37;;;;;;;8.15;1.80;;;2.50;99.90;;;;;;5062315;28;20448;-72
2023/03/07 05:35:03;;;;;;;13.35;2.33;;;2.50;99.90;;;;;;5066287;28;20041;-72
2023/03/07 05:37:28;;;;;;;11.25;2.40;;;2.50;99.90;;;;;;5065242;28;20033;-72
2023/03/07 05:39:54;;;;;;;15.50;2.20;;;2.50;99.90;;;;;;5060322;28;20101;-73
2023/03/07 05:42:19;;;;;;;14.55;2.30;;;2.50;99.90;;;;;;5067026;28;20424;-72
2023/03/07 05:44:45;;;;;;;7.65;1.55;;;2.50;99.90;;;;;;5066535;28;20135;-73
2023/03/07 05:47:11;;;;;;;10.52;1.48;;;2.40;99.90;;;;;;5062359;28;20068;-72
2023/03/07 05:49:36;;;;;;;11.90;2.15;;;2.40;99.90;;;;;;5064778;28;20068;-72
2023/03/07 05:52:02;;;;;;;10.70;1.92;;;2.40;99.90;;;;;;5068135;28;20075;-72
2023/03/07 05:54:28;;;;;;;8.65;1.98;;;2.40;99.90;;;;;;5069275;28;20037;-72
2023/03/07 05:56:53;;;;;;;15.65;2.10;;;2.50;99.90;;;;;;5064624;28;20039;-72
2023/03/07 05:59:19;;;;;;;6.20;1.77;;;2.40;99.90;;;;;;5068012;28;20112;-72
2023/03/07 06:01:45;;;;;;;12.68;1.90;;;2.40;99.90;;;;;;5058719;28;20040;-72
2023/03/07 06:04:10;;;;;;;9.27;1.75;;;2.40;99.90;;;;;;5069763;28;20064;-72
2023/03/07 06:06:36;;;;;;;21.20;3.95;;;2.40;99.90;;;;;;5068962;28;20041;-71
2023/03/07 06:09:04;;;;;;;8.02;1.48;;;2.50;99.90;;;;;;5069434;28;20493;-71
2023/03/07 06:11:30;;;;;;;7.43;1.38;;;2.50;99.90;;;;;;5063013;28;20041;-72
2023/03/07 06:13:56;;;;;;;8.32;1.27;;;2.50;99.90;;;;;;5068970;28;20049;-72
2023/03/07 06:16:22;;;;;;;13.45;2.35;;;2.60;99.90;;;;;;5068722;28;20039;-71
2023/03/07 06:18:47;;;;;;;9.27;1.85;;;2.60;99.90;;;;;;5074180;28;20071;-71
2023/03/07 06:21:15;;;;;;;7.55;2.00;;;2.50;99.90;;;;;;5082644;28;20096;-70
2023/03/07 06:23:41;;;;;;;10.15;1.83;;;2.50;99.90;;;;;;5080509;28;20131;-71
2023/03/07 06:26:11;;;;;;;7.10;1.85;;;2.50;99.90;;;;;;5074107;28;20037;-71
2023/03/07 06:28:39;;;;;;;8.13;1.77;;;2.50;99.90;;;;;;5081051;28;20068;-72
2023/03/07 06:31:09;;;;;;;4.82;1.42;;;2.80;99.90;;;;;;5074787;28;20561;-72
2023/03/07 06:33:35;;;;;;;5.60;1.40;;;2.50;99.90;;;;;;5078715;28;20040;-72
2023/03/07 06:36:05;;;;;;;9.73;1.55;;;2.50;99.90;;;;;;5075272;28;20045;-72
2023/03/07 06:38:31;;;;;;;7.03;1.60;;;2.50;99.90;;;;;;5079807;28;20044;-72
2023/03/07 06:40:56;;;;;;;9.20;2.13;;;2.50;99.90;;;;;;5073967;28;20040;-72
2023/03/07 06:43:22;;;;;;;12.95;1.83;;;2.50;99.90;;;;;;5063961;28;20375;-72
2023/03/07 06:45:48;;;;;;;12.20;2.22;;;2.50;99.90;;;;;;5068666;28;20039;-72
2023/03/07 06:48:13;;;;;;;7.20;1.45;;;2.50;99.90;;;;;;5072694;28;20550;-76
2023/03/07 06:50:39;;;;;;;17.70;1.95;;;2.50;99.90;;;;;;5071613;28;20512;-72
2023/03/07 06:53:05;;;;;;;16.80;2.00;;;2.50;99.90;;;;;;5065403;28;20114;-71
2023/03/07 06:55:30;;;;;;;12.93;1.92;;;2.50;99.90;;;;;;5059738;28;20044;-72
2023/03/07 06:57:56;;;;;;;7.72;2.33;;;2.70;99.90;;;;;;5070272;28;20123;-72
2023/03/07 07:00:21;;;;;;;12.27;1.70;;;2.50;99.90;;;;;;5071448;28;20453;-73
2023/03/07 07:02:48;;;;;;;10.90;1.58;;;2.50;99.90;;;;;;5066078;28;20037;-73
2023/03/07 07:05:14;;;;;;;6.03;1.33;;;2.50;99.90;;;;;;5070651;28;20482;-73
2023/03/07 07:07:39;;;;;;;13.15;1.88;;;2.60;99.90;;;;;;5067053;28;20102;-72
2023/03/07 07:10:05;;;;;;;11.30;1.85;;;2.60;99.90;;;;;;5068853;28;20060;-73
2023/03/07 07:12:31;;;;;;;12.32;2.10;;;2.60;99.90;;;;;;5067777;28;20032;-72
2023/03/07 07:14:57;;;;;;;8.40;1.67;;;2.60;99.90;;;;;;5063682;28;20410;-73
2023/03/07 07:17:22;;;;;;;12.27;1.73;;;2.60;99.90;;;;;;5070028;28;20071;-72
2023/03/07 07:19:49;;;;;;;9.00;1.30;;;2.60;99.90;;;;;;5069221;28;20044;-72
2023/03/07 07:22:16;;;;;;;8.52;2.00;;;2.60;99.90;;;;;;5065148;28;20036;-73
2023/03/07 07:24:42;;;;;;;8.32;1.42;;;2.70;99.90;;;;;;5067162;28;20124;-73
2023/03/07 07:27:08;;;;;;;7.65;1.55;;;2.70;99.90;;;;;;5066483;28;20140;-73
2023/03/07 07:29:33;;;;;;;3.83;1.20;;;2.70;99.90;;;;;;5065308;28;20051;-72
2023/03/07 07:31:59;;;;;;;8.90;1.48;;;2.70;99.90;;;;;;5061337;28;20091;-72
2023/03/07 07:34:25;;;;;;;8.43;1.42;;;2.40;99.90;;;;;;5064179;28;20094;-72
2023/03/07 07:36:51;;;;;;;5.95;1.60;;;2.80;99.90;;;;;;5065786;28;20043;-72
2023/03/07 07:39:18;;;;;;;4.05;1.27;;;2.80;99.90;;;;;;5037881;28;20482;-73
2023/03/07 07:41:44;;;;;;;4.70;1.10;;;2.80;99.90;;;;;;5061934;28;20045;-72
2023/03/07 07:44:10;;;;;;;6.85;1.40;;;2.80;99.90;;;;;;5061652;28;20094;-74
2023/03/07 07:46:36;;;;;;;8.18;1.17;;;2.70;99.90;;;;;;5055943;28;20036;-73
2023/03/07 07:49:02;;;;;;;13.18;1.58;;;2.80;99.90;;;;;;5058187;28;20059;-73
2023/03/07 07:51:28;;;;;;;8.32;1.40;;;2.80;99.90;;;;;;5056831;28;20057;-73
2023/03/07 07:53:54;;;;;;;11.18;1.65;;;2.80;99.90;;;;;;5069122;28;20400;-73
2023/03/07 07:56:20;;;;;;;14.05;2.63;;;2.80;99.90;;;;;;5059215;28;20724;-70
2023/03/07 07:58:45;;;;;;;13.18;1.50;;;2.90;99.90;;;;;;5065456;28;20040;-71
2023/03/07 08:01:20;;;;;;;9.98;1.58;;;3.70;99.90;;;;;;5052903;28;20047;-71
2023/03/07 08:03:46;;;;;;;4.28;1.48;;;2.90;99.90;;;;;;5056484;28;20040;-71
2023/03/07 08:06:12;;;;;;;6.70;1.48;;;3.00;99.90;;;;;;5068740;28;20439;-72
2023/03/07 08:08:38;;;;;;;11.23;1.83;;;3.00;99.90;;;;;;5053326;28;20120;-72
2023/03/07 08:11:04;;;;;;;8.07;1.42;;;3.00;99.90;;;;;;5051730;28;20118;-72
2023/03/07 08:13:30;;;;;;;8.52;1.65;;;3.10;99.90;;;;;;5070945;28;20432;-73
2023/03/07 08:15:56;;;;;;;9.10;1.60;;;3.10;99.90;;;;;;5072925;28;20068;-72
2023/03/07 08:18:21;;;;;;;11.52;2.13;;;3.20;99.90;;;;;;5050321;28;20067;-72
2023/03/07 08:20:47;;;;;;;10.57;1.98;;;3.20;99.90;;;;;;5058730;28;20044;-72
2023/03/07 08:23:13;;;;;;;10.00;2.58;;;3.30;99.90;;;;;;5058296;28;20059;-73
2023/03/07 08:25:39;;;;;;;16.13;1.92;;;3.40;99.90;;;;;;5070782;28;20044;-72
2023/03/07 08:28:04;;;;;;;10.30;2.03;;;3.40;99.90;;;;;;5062026;28;20505;-72
2023/03/07 08:30:32;;;;;;;9.15;1.77;;;3.40;99.90;;;;;;5053194;28;20093;-71
2023/03/07 08:32:58;;;;;;;10.95;2.10;;;3.50;99.90;;;;;;5063727;28;20037;-72
2023/03/07 08:35:26;;;;;;;10.68;1.48;;;3.40;99.90;;;;;;5071323;28;20099;-72
2023/03/07 08:37:57;;;;;;;7.13;1.52;;;3.50;99.90;;;;;;5070731;28;20047;-72
2023/03/07 08:40:25;;;;;;;7.88;1.40;;;3.40;99.90;;;;;;5052874;28;20116;-71
2023/03/07 08:42:50;;;;;;;8.88;1.90;;;3.30;99.90;;;;;;5068268;28;20063;-72
2023/03/07 08:45:16;;;;;;;8.20;2.03;;;3.20;99.90;;;;;;5071730;28;20044;-71
2023/03/07 08:47:42;;;;;;;7.15;1.50;;;3.10;99.90;;;;;;5065340;28;20044;-71
2023/03/07 08:50:08;;;;;;;10.23;1.60;;;3.10;99.90;;;;;;5050731;28;20145;-71
2023/03/07 08:52:34;;;;;;;12.57;2.35;;;3.10;99.90;;;;;;5052105;28;20045;-72
2023/03/07 08:55:00;;;;;;;7.63;1.73;;;3.10;99.90;;;;;;5052131;28;20098;-71
2023/03/07 08:57:26;;;;;;;8.57;1.83;;;3.20;99.90;;;;;;5063449;28;20056;-72
2023/03/07 08:59:52;;;;;;;7.45;1.50;;;3.30;99.90;;;;;;5062429;28;20041;-72
2023/03/07 09:02:17;;;;;;;6.82;1.80;;;3.30;99.90;;;;;;5048986;28;20052;-72
2023/03/07 09:04:44;;;;;;;5.18;1.70;;;3.40;99.90;;;;;;5057782;28;20037;-72
2023/03/07 09:07:10;;;;;;;7.57;1.70;;;3.40;99.90;;;;;;5066991;28;20518;-72
2023/03/07 09:09:36;;;;;;;13.55;1.65;;;3.40;99.90;;;;;;5071747;28;20037;-72
2023/03/07 09:12:01;;;;;;;6.90;1.85;;;3.40;99.90;;;;;;5069409;28;20047;-72
2023/03/07 09:14:27;;;;;;;6.15;2.00;;;3.40;99.90;;;;;;5053055;28;20405;-72
2023/03/07 09:16:53;;;;;;;10.13;1.70;;;3.40;99.90;;;;;;5057106;28;20176;-72
2023/03/07 09:19:18;;;;;;;3.50;1.13;;;3.40;99.90;;;;;;5063231;28;20062;-72
2023/03/07 09:21:44;;;;;;;10.55;2.08;;;3.30;99.90;;;;;;5070631;28;20062;-72
2023/03/07 09:24:09;;;;;;;7.85;1.60;;;3.30;99.90;;;;;;5070463;28;20149;-72
2023/03/07 09:26:35;;;;;;;9.75;1.90;;;3.40;99.90;;;;;;5069852;28;20036;-72
2023/03/07 09:29:01;;;;;;;7.47;1.42;;;3.40;99.90;;;;;;5066486;28;20041;-72
2023/03/07 09:31:26;;;;;;;6.85;1.60;;;3.40;99.90;;;;;;5061254;28;20044;-72
2023/03/07 09:33:52;;;;;;;7.32;1.95;;;3.40;99.90;;;;;;5072217;28;20045;-72
2023/03/07 09:36:18;;;;;;;12.45;2.17;;;3.40;99.90;;;;;;5071215;28;20044;-72
2023/03/07 09:38:45;;;;;;;8.57;2.28;;;3.50;99.90;;;;;;5076694;28;20458;-72
2023/03/07 09:41:20;;;;;;;8.68;1.70;;;3.50;99.90;;;;;;5075572;28;20052;-72
2023/03/07 09:44:19;;;;;;;7.95;1.80;;;3.60;99.90;;;;;;5063496;28;20493;-72
2023/03/07 09:47:01;;;;;;;12.00;1.80;;;3.60;99.90;;;;;;5075074;28;20401;-72
2023/03/07 09:49:37;;;;;;;5.22;1.58;;;3.70;99.90;;;;;;5074319;28;20074;-72
2023/03/07 09:52:12;;;;;;;10.20;2.05;;;3.70;99.90;;;;;;5057340;28;20048;-72
2023/03/07 09:54:43;;;;;;;6.97;1.92;;;3.70;99.90;;;;;;5076208;28;20060;-72
2023/03/07 09:57:26;;;;;;;9.98;1.65;;;3.70;99.90;;;;;;5060443;28;20428;-72
2023/03/07 09:59:58;;;;;;;10.65;2.30;;;3.70;99.90;;;;;;5070472;28;20592;-72
2023/03/07 10:02:42;;;;;;;10.13;2.45;;;3.70;99.90;;;;;;5075751;28;20366;-72
2023/03/07 10:05:30;;;;;;;9.27;1.85;;;3.80;99.90;;;;;;5075674;28;20083;-72
2023/03/07 10:07:56;;;;;;;7.07;1.63;;;3.90;99.90;;;;;;5068886;28;20116;-73
2023/03/07 10:10:38;;;;;;;8.25;1.60;;;3.90;99.90;;;;;;5054313;28;20393;-72
2023/03/07 10:13:22;;;;;;;6.90;1.90;;;4.00;99.90;;;;;;5056960;28;20045;-72
2023/03/07 10:16:23;;;;;;;6.57;1.52;;;4.20;99.90;;;;;;5061833;28;20396;-72
2023/03/07 10:18:59;;;;;;;14.40;2.20;;;4.40;99.90;;;;;;5064740;28;20150;-73
2023/03/07 10:21:56;;;;;;;7.82;1.77;;;4.50;99.90;;;;;;5055935;28;20140;-73
2023/03/07 10:24:30;;;;;;;9.88;1.52;;;4.60;99.90;;;;;;5040979;28;20389;-73
2023/03/07 10:27:05;;;;;;;9.43;1.70;;;4.60;99.90;;;;;;5069717;28;20044;-73
2023/03/07 10:29:52;;;;;;;10.80;1.98;;;4.60;99.90;;;;;;5073790;28;20045;-73
2023/03/07 10:32:38;;;;;;;18.52;2.17;;;4.60;99.90;;;;;;5056603;28;20055;-73
2023/03/07 10:35:18;;;;;;;5.93;1.50;;;4.70;99.90;;;;;;5062111;28;20041;-72
2023/03/07 10:38:03;;;;;;;10.63;1.65;;;4.60;99.90;;;;;;5074413;28;20053;-73
2023/03/07 10:40:35;;;;;;;8.43;2.17;;;4.50;99.90;;;;;;5056408;28;20495;-72
2023/03/07 10:43:00;;;;;;;9.80;1.83;;;4.50;99.90;;;;;;5075158;28;20037;-72
2023/03/07 10:45:31;;;;;;;6.20;1.70;;;4.40;99.90;;;;;;5074565;28;20048;-72
2023/03/07 10:48:06;;;;;;;4.18;1.50;;;4.50;99.90;;;;;;5072937;28;20047;-72
2023/03/07 10:50:44;;;;;;;8.00;1.50;;;4.60;99.90;;;;;;5073238;28;20374;-72
2023/03/07 10:53:24;;;;;;;6.05;1.90;;;4.70;99.90;;;;;;5073031;28;20045;-73
2023/03/07 10:55:49;;;;;;;7.88;1.90;;;5.10;99.90;;;;;;5059735;28;20119;-72
2023/03/07 10:58:26;;;;;;;6.95;1.95;;;5.20;99.90;;;;;;5074087;28;20120;-72
2023/03/07 11:01:15;;;;;;;10.82;2.10;;;5.40;99.90;;;;;;5059391;28;20058;-73
2023/03/07 11:03:54;;;;;;;9.60;1.85;;;5.50;99.90;;;;;;5062325;28;20121;-73
2023/03/07 11:06:36;;;;;;;6.88;1.85;;;5.60;99.90;;;;;;5075326;28;20044;-72
2023/03/07 11:09:29;;;;;;;10.98;2.55;;;5.70;99.90;;;;;;5077458;28;20370;-73
2023/03/07 11:12:10;;;;;;;11.73;1.92;;;5.70;99.90;;;;;;5065297;28;20072;-72
2023/03/07 11:14:50;;;;;;;9.38;1.77;;;5.80;99.90;;;;;;5068227;28;20390;-72
2023/03/07 11:17:26;;;;;;;9.50;2.10;;;6.10;99.90;;;;;;5062155;28;20060;-73
2023/03/07 11:19:57;;;;;;;11.57;1.95;;;6.40;99.90;;;;;;5078792;28;20048;-73
2023/03/07 11:22:34;;;;;;;13.30;2.67;;;6.80;99.90;;;;;;5080161;28;20044;-73
2023/03/07 11:25:24;;;;;;;14.43;2.55;;;7.20;99.90;;;;;;5077350;28;20098;-73
2023/03/07 11:27:57;;;;;;;10.18;2.38;;;7.90;99.90;;;;;;5061844;28;20051;-74
2023/03/07 11:30:34;;;;;;;11.25;2.25;;;8.10;99.90;;;;;;5054826;28;20053;-73
2023/03/07 11:33:15;;;;;;;10.05;2.10;;;7.90;99.90;;;;;;5067600;28;20150;-72
2023/03/07 11:35:50;;;;;;;8.68;1.70;;;7.10;99.90;;;;;;5073363;28;20049;-72
2023/03/07 11:38:22;;;;;;;9.02;2.08;;;6.30;99.90;;;;;;5063941;28;20040;-72
2023/03/07 11:41:01;;;;;;;13.63;1.65;;;5.60;99.90;;;;;;5072858;28;20392;-72
2023/03/07 11:43:44;;;;;;;7.93;1.55;;;5.20;99.90;;;;;;5071529;28;20419;-72
2023/03/07 11:46:37;;;;;;;10.25;1.73;;;4.90;99.90;;;;;;5069706;28;20052;-72
2023/03/07 11:49:29;;;;;;;5.45;1.50;;;4.70;99.90;;;;;;5053428;28;20045;-72
2023/03/07 11:52:30;;;;;;;8.80;1.60;;;4.60;99.90;;;;;;5053129;28;20077;-72
2023/03/07 11:55:40;;;;;;;6.55;1.83;;;4.60;99.90;;;;;;5064358;28;20052;-72
2023/03/07 11:58:19;;;;;;;13.15;1.98;;;4.40;99.90;;;;;;5061038;28;20049;-72
2023/03/07 12:01:07;;;;;;;6.40;1.63;;;4.40;99.90;;;;;;5053824;28;20045;-72
2023/03/07 12:04:06;;;;;;;9.65;1.85;;;4.80;99.90;;;;;;5072852;28;20076;-72
2023/03/07 12:06:55;;;;;;;11.40;1.60;;;5.50;99.90;;;;;;5073008;28;20105;-72
2023/03/07 12:09:57;;;;;;;13.90;2.42;;;6.50;99.90;;;;;;5073247;28;20048;-73
2023/03/07 12:12:41;;;;;;;7.95;1.90;;;7.40;99.90;;;;;;5058950;28;20490;-73
2023/03/07 12:15:16;;;;;;;13.23;2.90;;;8.10;99.90;;;;;;5052507;28;20044;-73
2023/03/07 12:18:04;;;;;;;12.98;2.42;;;8.60;99.90;;;;;;5054908;28;20041;-71
2023/03/07 12:20:59;;;;;;;7.20;2.05;;;9.20;99.90;;;;;;5051914;28;20052;-71
2023/03/07 12:23:47;;;;;;;10.10;1.75;;;9.10;99.90;;;;;;5063706;28;20090;-71
2023/03/07 12:26:22;;;;;;;10.40;2.10;;;8.90;99.90;;;;;;5069941;28;20037;-71
2023/03/07 12:28:53;;;;;;;8.05;1.90;;;8.60;99.90;;;;;;5071111;28;20048;-72
2023/03/07 12:31:34;;;;;;;5.75;1.48;;;8.80;99.90;;;;;;5072699;28;20053;-71
2023/03/07 12:34:18;;;;;;;6.00;1.10;;;9.30;99.90;;;;;;5050812;28;20080;-71
2023/03/07 12:36:54;;;;;;;7.10;1.27;;;9.30;97.20;;;;;;5052249;28;20052;-71
2023/03/07 12:39:29;;;;;;;5.45;1.35;;;8.70;97.70;;;;;;5069409;28;20413;-72
2023/03/07 12:42:04;;;;;;;5.95;1.20;;;8.00;95.40;;;;;;5063183;28;20397;-71
2023/03/07 12:44:44;;;;;;;7.70;1.20;;;7.70;97.00;;;;;;5052225;28;20498;-71
2023/03/07 12:47:23;;;;;;;4.30;0.95;;;7.90;96.30;;;;;;5057195;28;20127;-72
2023/03/07 12:50:25;;;;;;;5.07;1.40;;;7.90;97.30;;;;;;5072178;28;20060;-71
2023/03/07 12:53:03;;;;;;;4.90;1.42;;;7.80;96.10;;;;;;5071269;28;20056;-72
2023/03/07 12:55:47;;;;;;;8.45;1.42;;;7.40;97.70;;;;;;5065914;28;20416;-71
2023/03/07 12:58:33;;;;;;;7.85;1.50;;;7.30;98.30;;;;;;5061247;28;20420;-71
2023/03/07 13:01:02;;;;;;;8.18;1.52;;;7.10;97.90;;;;;;5071665;28;20116;-72
2023/03/07 13:04:00;;;;;;;12.15;1.65;;;7.00;96.10;;;;;;5068522;28;20045;-71
2023/03/07 13:06:27;;;;;;;6.43;0.93;;;6.80;95.50;;;;;;5052489;28;20529;-72